Time;durP1;ratioP1;P1;durP2;ratioP2;P2;SDS_P1;SDS_P2;PMS_P1;PMS_P2;Temp;Humidity;BMP_temperature;BMP_pressure;BME280_temperature;BME280_humidity;BME280_pressure;Samples;Min_cycle;Max_cycle;Signal;HPM_P1;HPM_P2
2022/10/29 00:01:30;;;;;;;16.15;7.78;;;;;;;13.45;52.72;100871.31;5051719;28;20536;-43
2022/10/29 00:03:55;;;;;;;16.98;8.05;;;;;;;13.47;53.05;100878.13;5051363;28;20405;-42
2022/10/29 00:06:21;;;;;;;18.65;7.93;;;;;;;13.56;52.17;100875.31;5050649;28;20048;-42
2022/10/29 00:08:47;;;;;;;18.42;7.88;;;;;;;13.42;52.82;100874.38;5050127;28;20033;-42
2022/10/29 00:11:20;;;;;;;17.02;9.07;;;;;;;13.14;53.16;100885.84;5051669;28;20033;-42
2022/10/29 00:13:47;;;;;;;18.67;8.98;;;;;;;12.93;53.84;100878.69;5050557;28;20448;-42
2022/10/29 00:16:16;;;;;;;21.42;8.88;;;;;;;13.03;53.60;100883.69;5051387;28;20032;-42
2022/10/29 00:18:42;;;;;;;15.23;8.35;;;;;;;13.04;53.16;100880.84;5051115;28;20104;-42
2022/10/29 00:21:11;;;;;;;13.73;8.23;;;;;;;12.99;53.56;100877.09;5051297;28;20032;-41
2022/10/29 00:23:36;;;;;;;15.43;9.10;;;;;;;13.12;53.58;100879.88;5050580;28;20692;-41
2022/10/29 00:26:03;;;;;;;23.23;8.32;;;;;;;13.04;53.16;100880.00;5050832;28;20090;-42
2022/10/29 00:28:29;;;;;;;17.02;8.63;;;;;;;12.81;54.07;100870.34;5050415;28;20013;-43
2022/10/29 00:30:54;;;;;;;22.23;9.13;;;;;;;12.75;53.85;100870.28;5050879;28;20036;-42
2022/10/29 00:33:20;;;;;;;12.52;7.85;;;;;;;12.91;54.17;100870.84;5050495;28;20150;-41
2022/10/29 00:36:00;;;;;;;16.33;9.07;;;;;;;13.01;53.41;100865.19;5050339;28;20514;-42
2022/10/29 00:38:26;;;;;;;14.18;8.38;;;;;;;13.18;52.66;100859.56;5050595;28;20013;-41
2022/10/29 00:40:53;;;;;;;16.25;8.68;;;;;;;13.26;52.45;100856.75;5050560;28;20485;-42
2022/10/29 00:43:20;;;;;;;16.55;8.85;;;;;;;13.06;53.45;100861.91;5049580;28;20098;-42
2022/10/29 00:45:53;;;;;;;16.10;8.98;;;;;;;13.19;53.43;100856.69;5049664;28;20024;-42
2022/10/29 00:48:21;;;;;;;14.93;8.82;;;;;;;13.33;52.88;100851.47;5050140;28;20028;-42
2022/10/29 00:50:47;;;;;;;14.75;9.45;;;;;;;13.16;53.27;100856.28;5050416;28;20028;-42
2022/10/29 00:53:18;;;;;;;18.95;9.00;;;;;;;13.19;53.02;100850.53;5050658;28;20029;-42
2022/10/29 00:55:43;;;;;;;18.48;9.52;;;;;;;12.90;53.82;100850.47;5049971;28;20519;-41
2022/10/29 00:58:09;;;;;;;15.73;8.80;;;;;;;12.91;54.07;100854.00;5050663;28;20052;-42
2022/10/29 01:00:35;;;;;;;18.00;8.95;;;;;;;12.88;54.26;100849.84;5050939;28;20374;-42
2022/10/29 01:03:00;;;;;;;17.23;9.00;;;;;;;12.99;53.99;100845.84;5051465;28;20025;-42
2022/10/29 01:05:27;;;;;;;14.43;9.05;;;;;;;13.00;54.07;100847.47;5050988;28;20151;-41
2022/10/29 01:07:53;;;;;;;16.95;9.00;;;;;;;12.97;54.26;100847.06;5050875;28;20032;-42
2022/10/29 01:10:45;;;;;;;15.80;9.20;;;;;;;13.11;54.12;100851.50;5050838;28;20025;-41
2022/10/29 01:13:48;;;;;;;17.92;8.55;;;;;;;13.29;53.55;100840.34;5039328;28;20120;-41
2022/10/29 01:16:33;;;;;;;18.08;8.45;;;;;;;13.33;53.13;100835.44;5050612;28;20069;-41
2022/10/29 01:19:22;;;;;;;16.88;8.65;;;;;;;13.05;54.17;100833.56;5046943;28;20044;-42
2022/10/29 01:22:02;;;;;;;13.27;8.18;;;;;;;12.88;54.71;100835.69;5049965;28;20062;-41
2022/10/29 01:24:50;;;;;;;17.75;8.68;;;;;;;12.98;54.66;100838.84;5050577;28;20065;-42
2022/10/29 01:27:53;;;;;;;13.75;8.07;;;;;;;12.96;54.16;100832.84;5050779;28;20052;-42
2022/10/29 01:30:24;;;;;;;17.73;9.00;;;;;;;12.85;54.29;100826.22;5050372;28;20400;-43
2022/10/29 01:32:58;;;;;;;14.02;8.85;;;;;;;12.94;54.21;100824.22;5050309;28;20036;-42
2022/10/29 01:35:24;;;;;;;16.42;8.85;;;;;;;12.91;54.11;100830.78;5050568;28;20061;-42
2022/10/29 01:37:58;;;;;;;13.82;8.63;;;;;;;12.62;55.16;100826.41;5050320;28;20393;-42
2022/10/29 01:40:52;;;;;;;15.07;8.75;;;;;;;12.76;54.87;100819.34;5050139;28;20037;-42
2022/10/29 01:43:43;;;;;;;14.20;8.60;;;;;;;12.69;55.23;100821.13;5050089;28;20029;-43
2022/10/29 01:46:19;;;;;;;14.60;7.93;;;;;;;12.79;54.94;100820.78;5050562;28;20436;-43
2022/10/29 01:48:51;;;;;;;14.98;8.60;;;;;;;12.80;54.27;100819.78;5050509;28;20037;-42
2022/10/29 01:51:28;;;;;;;16.42;8.52;;;;;;;12.90;54.14;100813.09;5049642;28;20404;-42
2022/10/29 01:53:55;;;;;;;16.23;8.82;;;;;;;12.77;54.18;100807.63;5050253;28;20085;-42
2022/10/29 01:56:20;;;;;;;14.30;8.93;;;;;;;12.47;55.33;100813.13;5050338;28;20089;-42
2022/10/29 01:58:50;;;;;;;18.02;9.45;;;;;;;12.56;54.86;100810.31;5050005;28;20483;-42
2022/10/29 02:01:55;;;;;;;16.65;9.20;;;;;;;12.45;55.34;100804.47;5050129;28;20039;-42
2022/10/29 02:04:30;;;;;;;14.13;8.70;;;;;;;12.42;55.69;100812.03;5050392;28;20032;-42
2022/10/29 02:06:58;;;;;;;20.83;9.27;;;;;;;12.55;55.01;100809.50;5050348;28;20033;-42
2022/10/29 02:09:34;;;;;;;14.57;8.43;;;;;;;12.61;55.22;100815.91;5050292;28;20059;-42
2022/10/29 02:12:04;;;;;;;16.30;8.30;;;;;;;12.15;56.25;100803.72;5050070;28;20020;-42
2022/10/29 02:14:37;;;;;;;12.80;7.82;;;;;;;12.32;56.44;100809.66;5050578;28;20075;-42
2022/10/29 02:17:03;;;;;;;14.00;7.80;;;;;;;12.30;56.01;100806.38;5050302;28;20477;-40
2022/10/29 02:19:34;;;;;;;13.35;7.90;;;;;;;12.47;55.45;100810.44;5050164;28;20025;-41
2022/10/29 02:22:00;;;;;;;16.90;8.80;;;;;;;12.54;54.95;100810.50;5050214;28;20036;-41
2022/10/29 02:24:25;;;;;;;16.90;8.02;;;;;;;12.71;54.41;100808.41;5049919;28;20101;-42
2022/10/29 02:26:51;;;;;;;16.17;8.55;;;;;;;12.76;54.67;100810.50;5050572;28;20075;-42
2022/10/29 02:29:17;;;;;;;17.83;8.10;;;;;;;12.77;53.95;100807.63;5049847;28;20465;-42
2022/10/29 02:31:42;;;;;;;18.95;8.48;;;;;;;12.80;54.13;100801.09;5049955;28;20025;-42
2022/10/29 02:34:07;;;;;;;15.75;7.57;;;;;;;12.81;54.18;100808.91;5049968;28;20110;-42
2022/10/29 02:36:33;;;;;;;14.23;7.70;;;;;;;12.68;53.82;100804.28;5048607;28;20029;-42
2022/10/29 02:38:58;;;;;;;13.20;8.15;;;;;;;12.68;54.49;100800.78;5050029;28;20043;-42
2022/10/29 02:41:24;;;;;;;15.65;8.38;;;;;;;12.74;54.39;100799.16;5050098;28;20104;-42
2022/10/29 02:43:49;;;;;;;14.90;7.88;;;;;;;12.81;54.40;100808.91;5050062;28;20500;-41
2022/10/29 02:46:17;;;;;;;21.83;8.18;;;;;;;12.82;53.88;100799.88;5049699;28;20041;-41
2022/10/29 02:48:43;;;;;;;14.48;8.63;;;;;;;12.84;53.87;100807.69;5050030;28;20400;-42
2022/10/29 02:51:09;;;;;;;20.48;9.05;;;;;;;12.85;53.99;100812.00;5050141;28;20052;-42
2022/10/29 02:53:35;;;;;;;17.55;8.55;;;;;;;12.62;54.60;100806.88;5049817;28;20458;-42
2022/10/29 02:56:00;;;;;;;18.30;8.25;;;;;;;12.38;55.01;100811.56;5050034;28;20043;-41
2022/10/29 02:58:26;;;;;;;17.55;8.75;;;;;;;12.50;54.59;100811.91;5049487;28;20105;-42
2022/10/29 03:00:51;;;;;;;17.58;8.80;;;;;;;12.54;54.43;100821.16;5050396;28;20466;-41
2022/10/29 03:03:17;;;;;;;18.08;8.38;;;;;;;12.57;54.39;100826.16;5052732;28;20417;-42
2022/10/29 03:05:43;;;;;;;15.30;8.25;;;;;;;12.47;54.22;100823.78;5053464;28;20087;-43
2022/10/29 03:08:08;;;;;;;21.60;8.38;;;;;;;12.39;54.47;100815.88;5053379;28;20025;-41
2022/10/29 03:10:34;;;;;;;17.05;8.70;;;;;;;12.21;54.99;100823.50;5052989;28;20029;-41
2022/10/29 03:13:00;;;;;;;14.82;8.40;;;;;;;12.04;55.54;100817.56;5053210;28;20177;-41
2022/10/29 03:15:26;;;;;;;19.77;9.07;;;;;;;12.00;56.31;100813.59;5053205;28;20035;-41
2022/10/29 03:17:51;;;;;;;17.05;8.70;;;;;;;11.85;55.96;100810.91;5053198;28;20025;-42
2022/10/29 03:20:17;;;;;;;20.00;8.95;;;;;;;11.63;57.21;100810.00;5052963;28;20457;-42
2022/10/29 03:22:42;;;;;;;17.42;9.48;;;;;;;11.42;57.09;100811.56;5052628;28;20057;-42
2022/10/29 03:25:08;;;;;;;22.70;9.65;;;;;;;11.49;57.26;100809.81;5053320;28;20033;-42
2022/10/29 03:27:41;;;;;;;20.45;9.23;;;;;;;11.50;57.17;100810.66;5052969;28;20029;-42
2022/10/29 03:30:11;;;;;;;21.95;9.02;;;;;;;11.69;56.29;100809.25;5052882;28;20032;-41
2022/10/29 03:32:44;;;;;;;21.02;8.90;;;;;;;11.49;56.44;100798.34;5053226;28;20032;-42
2022/10/29 03:35:11;;;;;;;21.17;9.45;;;;;;;11.51;56.66;100812.31;5053083;28;20040;-42
2022/10/29 03:37:37;;;;;;;23.58;9.30;;;;;;;11.34;57.32;100809.81;5052728;28;20021;-42
2022/10/29 03:40:03;;;;;;;18.30;9.77;;;;;;;11.42;56.57;100808.06;5052613;28;20107;-42
2022/10/29 03:42:30;;;;;;;20.60;8.98;;;;;;;11.38;57.00;100812.94;5052228;28;20032;-42
2022/10/29 03:44:59;;;;;;;18.52;8.98;;;;;;;11.16;57.30;100809.34;5051906;28;20031;-42
2022/10/29 03:47:25;;;;;;;15.98;8.63;;;;;;;11.03;57.42;100803.81;5052637;28;20025;-42
2022/10/29 03:49:50;;;;;;;16.15;9.07;;;;;;;11.30;56.39;100803.19;5052197;28;20035;-40
2022/10/29 03:52:15;;;;;;;18.67;9.23;;;;;;;11.46;56.62;100794.22;5052276;28;20032;-41
2022/10/29 03:54:41;;;;;;;18.92;9.45;;;;;;;11.41;56.48;100796.59;5052759;28;20037;-44
2022/10/29 03:57:06;;;;;;;21.48;9.82;;;;;;;11.29;56.92;100798.03;5052705;28;20029;-41
2022/10/29 03:59:32;;;;;;;16.17;10.13;;;;;;;11.33;56.74;100794.03;5052462;28;20108;-41
2022/10/29 04:01:57;;;;;;;18.10;9.32;;;;;;;11.35;56.23;100792.00;5052122;28;20033;-42
2022/10/29 04:04:22;;;;;;;17.73;9.63;;;;;;;11.48;56.11;100796.66;5052400;28;20523;-41
2022/10/29 04:06:48;;;;;;;16.60;10.55;;;;;;;11.33;55.72;100802.03;5052540;28;20043;-42
2022/10/29 04:09:13;;;;;;;15.20;9.75;;;;;;;11.27;56.20;100802.72;5052011;28;20017;-42
2022/10/29 04:11:39;;;;;;;16.70;9.77;;;;;;;11.12;56.30;100802.72;5052289;28;20485;-42
2022/10/29 04:14:04;;;;;;;14.52;8.85;;;;;;;10.99;56.91;100794.53;5051618;28;20465;-41
2022/10/29 04:16:30;;;;;;;19.50;10.27;;;;;;;10.99;57.37;100800.69;5051798;28;20055;-41
2022/10/29 04:18:55;;;;;;;18.85;9.68;;;;;;;11.00;57.23;100790.84;5051013;28;20484;-42
2022/10/29 04:21:20;;;;;;;20.70;10.60;;;;;;;11.00;56.88;100796.16;5050370;28;20036;-42
2022/10/29 04:23:48;;;;;;;15.70;9.65;;;;;;;10.83;57.67;100785.66;5051445;28;20064;-41
2022/10/29 04:26:13;;;;;;;17.77;9.50;;;;;;;10.94;57.13;100785.22;5051556;28;20083;-41
2022/10/29 04:28:38;;;;;;;19.63;9.57;;;;;;;10.89;57.46;100800.94;5051592;28;20434;-41
2022/10/29 04:31:05;;;;;;;24.35;10.10;;;;;;;10.87;57.30;100788.78;5057152;28;20028;-40
2022/10/29 04:33:31;;;;;;;19.52;9.77;;;;;;;10.73;58.19;100799.22;5058181;28;20029;-41
2022/10/29 04:35:56;;;;;;;18.55;9.70;;;;;;;10.81;57.64;100790.31;5056659;28;20032;-41
2022/10/29 04:38:22;;;;;;;19.25;9.43;;;;;;;10.92;57.30;100795.22;5053178;28;20028;-41
2022/10/29 04:40:47;;;;;;;16.48;9.15;;;;;;;11.03;56.77;100785.97;5051433;28;20415;-41
2022/10/29 04:43:13;;;;;;;18.85;8.65;;;;;;;11.03;56.71;100796.63;5051610;28;20060;-42
2022/10/29 04:45:38;;;;;;;20.42;9.52;;;;;;;11.04;57.24;100792.13;5051863;28;20451;-42
2022/10/29 04:48:05;;;;;;;24.40;10.80;;;;;;;10.93;57.46;100791.56;5050247;28;20024;-41
2022/10/29 04:50:31;;;;;;;18.10;9.48;;;;;;;10.96;56.93;100801.03;5051317;28;20029;-41
2022/10/29 04:52:58;;;;;;;19.20;9.57;;;;;;;10.79;57.42;100810.97;5051103;28;20029;-41
2022/10/29 04:55:24;;;;;;;19.63;9.60;;;;;;;10.82;57.33;100815.97;5051005;28;20036;-41
2022/10/29 04:57:49;;;;;;;23.08;10.70;;;;;;;10.67;58.20;100810.59;5050789;28;20481;-41
2022/10/29 05:00:15;;;;;;;26.10;10.57;;;;;;;10.72;57.79;100812.72;5051208;28;20164;-41
2022/10/29 05:02:40;;;;;;;20.75;9.75;;;;;;;10.75;58.01;100821.16;5051018;28;20025;-41
2022/10/29 05:05:06;;;;;;;25.75;10.38;;;;;;;10.85;57.41;100818.28;5050855;28;20085;-41
2022/10/29 05:07:31;;;;;;;18.23;10.10;;;;;;;11.07;56.90;100821.09;5050921;28;20091;-41
2022/10/29 05:09:57;;;;;;;22.75;10.00;;;;;;;11.14;57.54;100828.16;5050866;28;20051;-41
2022/10/29 05:12:22;;;;;;;17.25;9.40;;;;;;;11.29;57.29;100830.88;5050614;28;20043;-41
2022/10/29 05:14:47;;;;;;;21.33;11.13;;;;;;;11.60;56.06;100829.06;5050933;28;20025;-41
2022/10/29 05:17:13;;;;;;;28.77;15.75;;;;;;;11.90;57.57;100833.38;5050406;28;20513;-41
2022/10/29 05:19:38;;;;;;;38.42;24.23;;;;;;;12.00;59.99;100827.75;5050155;28;20031;-42
2022/10/29 05:22:03;;;;;;;31.60;16.25;;;;;;;12.15;60.41;100826.91;5050588;28;20107;-42
2022/10/29 05:24:29;;;;;;;43.28;26.52;;;;;;;12.46;58.94;100826.66;5049170;28;20104;-42
2022/10/29 05:26:54;;;;;;;18.77;9.55;;;;;;;12.79;55.54;100828.81;5055734;28;20487;-41
2022/10/29 05:29:20;;;;;;;27.35;12.00;;;;;;;13.04;53.85;100832.75;5065315;28;20021;-42
2022/10/29 05:31:45;;;;;;;26.08;12.30;;;;;;;13.24;53.91;100829.38;5046997;28;20462;-41
2022/10/29 05:34:11;;;;;;;30.38;14.75;;;;;;;13.19;56.61;100835.31;5036267;28;20022;-42
2022/10/29 05:36:36;;;;;;;23.10;10.98;;;;;;;13.57;53.42;100832.31;5049727;28;20366;-42
2022/10/29 05:39:01;;;;;;;23.30;8.82;;;;;;;13.91;51.97;100836.00;5049985;28;20108;-42
2022/10/29 05:41:27;;;;;;;14.88;8.20;;;;;;;14.30;51.24;100845.22;5061909;28;20460;-42
2022/10/29 05:43:52;;;;;;;16.52;8.57;;;;;;;14.64;50.34;100852.34;5064525;28;20025;-42
2022/10/29 05:46:18;;;;;;;17.63;8.55;;;;;;;14.97;48.97;100848.88;5043625;28;20159;-42
2022/10/29 05:48:43;;;;;;;16.02;7.78;;;;;;;15.12;48.47;100853.22;5055184;28;20128;-42
2022/10/29 05:51:08;;;;;;;11.80;6.20;;;;;;;15.44;48.71;100848.84;5050862;28;20029;-42
2022/10/29 05:53:35;;;;;;;8.00;5.32;;;;;;;15.87;46.97;100845.69;5050741;28;20107;-43
2022/10/29 05:56:00;;;;;;;9.40;5.28;;;;;;;16.29;45.45;100843.44;5050650;28;20496;-42
2022/10/29 05:58:25;;;;;;;12.13;5.10;;;;;;;16.72;44.10;100840.09;5050831;28;20033;-42
2022/10/29 06:00:51;;;;;;;9.00;4.88;;;;;;;16.96;43.64;100851.09;5050682;28;20028;-43
2022/10/29 06:03:19;;;;;;;11.50;5.20;;;;;;;17.21;42.44;100851.13;5050611;28;20029;-43
2022/10/29 06:05:48;;;;;;;9.65;5.50;;;;;;;17.62;41.78;100846.19;5050347;28;20025;-43
2022/10/29 06:08:14;;;;;;;15.82;6.03;;;;;;;17.88;41.08;100854.00;5049993;28;20045;-44
2022/10/29 06:10:40;;;;;;;16.38;5.97;;;;;;;18.14;46.35;100862.78;5050361;28;20071;-43
2022/10/29 06:13:10;;;;;;;34.40;24.27;;;;;;;18.24;40.75;100868.47;5049655;28;20060;-36
2022/10/29 06:15:35;;;;;;;11.68;5.85;;;;;;;18.09;40.04;100868.88;5049535;28;20049;-37
2022/10/29 06:18:00;;;;;;;11.55;5.50;;;;;;;18.26;40.27;100863.69;5048313;28;20039;-36
2022/10/29 06:20:26;;;;;;;8.13;5.00;;;;;;;18.57;39.37;100864.50;5048822;28;20021;-36
2022/10/29 06:22:58;;;;;;;8.95;4.90;;;;;;;18.71;39.11;100857.03;5049242;28;20064;-36
2022/10/29 06:25:27;;;;;;;6.13;4.60;;;;;;;19.07;40.07;100863.38;5049392;28;20127;-36
2022/10/29 06:28:06;;;;;;;9.25;5.35;;;;;;;19.72;37.54;100852.50;5048788;28;20021;-35
2022/10/29 06:30:33;;;;;;;18.73;10.63;;;;;;;20.07;36.61;100857.00;5048921;28;20064;-36
2022/10/29 06:33:00;;;;;;;10.90;6.18;;;;;;;20.12;36.28;100856.25;5049215;28;20108;-37
2022/10/29 06:35:26;;;;;;;7.72;4.50;;;;;;;20.39;35.83;100855.69;5048957;28;20047;-36
2022/10/29 06:37:51;;;;;;;8.20;4.60;;;;;;;20.51;35.27;100845.66;5046909;28;20588;-36
2022/10/29 06:40:17;;;;;;;7.00;4.60;;;;;;;20.02;35.97;100858.75;5045146;28;20083;-37
2022/10/29 06:42:43;;;;;;;8.50;5.72;;;;;;;19.07;37.79;100866.06;5051488;28;20025;-35
2022/10/29 06:45:09;;;;;;;8.30;5.85;;;;;;;19.11;37.91;100857.28;5036723;28;20060;-36
2022/10/29 06:47:41;;;;;;;9.60;5.13;;;;;;;19.57;37.19;100873.69;5033170;28;20026;-36
2022/10/29 06:50:09;;;;;;;13.23;4.57;;;;;;;19.80;36.76;100872.06;5031765;28;20098;-36
2022/10/29 06:52:35;;;;;;;10.43;6.50;;;;;;;20.14;36.00;100859.53;5033021;28;20064;-37
2022/10/29 06:55:01;;;;;;;9.40;4.68;;;;;;;20.60;34.77;100863.16;5031070;28;20037;-37
2022/10/29 06:57:27;;;;;;;7.93;4.43;;;;;;;21.00;34.55;100856.81;5031399;28;20033;-36
2022/10/29 06:59:53;;;;;;;8.07;4.80;;;;;;;21.52;33.75;100863.84;5032064;28;20021;-36
2022/10/29 07:02:20;;;;;;;11.75;4.38;;;;;;;21.57;34.11;100865.81;5052112;28;20111;-35
2022/10/29 07:04:45;;;;;;;6.90;4.30;;;;;;;21.46;33.48;100841.28;5051891;28;20021;-36
2022/10/29 07:07:10;;;;;;;14.07;5.35;;;;;;;21.44;33.80;100856.97;5051678;28;20548;-36
2022/10/29 07:09:36;;;;;;;12.55;5.30;;;;;;;21.93;32.87;100861.66;5051477;28;20029;-37
2022/10/29 07:12:01;;;;;;;18.42;6.00;;;;;;;22.12;32.83;100851.31;5051545;28;20025;-36
2022/10/29 07:14:27;;;;;;;9.35;5.18;;;;;;;22.52;31.83;100855.59;5051960;28;20052;-35
2022/10/29 07:16:52;;;;;;;8.80;4.55;;;;;;;22.75;31.52;100856.34;5052122;28;20536;-36
2022/10/29 07:19:17;;;;;;;10.50;4.50;;;;;;;22.88;31.45;100853.19;5052061;28;20100;-36
2022/10/29 07:21:43;;;;;;;10.50;4.40;;;;;;;23.07;31.03;100852.84;5051939;28;20126;-36
2022/10/29 07:24:09;;;;;;;9.15;4.63;;;;;;;23.19;30.76;100853.50;5051845;28;20394;-36
2022/10/29 07:26:34;;;;;;;9.93;4.50;;;;;;;23.35;30.41;100855.22;5052135;28;20094;-35
2022/10/29 07:29:00;;;;;;;7.65;4.60;;;;;;;23.46;30.37;100844.44;5052202;28;20436;-35
2022/10/29 07:31:25;;;;;;;6.35;4.50;;;;;;;23.59;30.62;100852.94;5051898;28;20044;-35
2022/10/29 07:33:51;;;;;;;8.38;4.72;;;;;;;23.43;31.41;100860.16;5052130;28;20108;-38
2022/10/29 07:36:16;;;;;;;11.35;5.35;;;;;;;23.41;31.39;100853.34;5051065;28;20025;-36
2022/10/29 07:38:42;;;;;;;9.20;4.90;;;;;;;23.73;30.76;100847.81;5052893;28;20385;-35
2022/10/29 07:41:07;;;;;;;9.75;4.78;;;;;;;23.89;30.93;100845.19;5052604;28;20083;-38
2022/10/29 07:43:32;;;;;;;9.63;4.57;;;;;;;24.07;31.01;100841.22;5051969;28;20078;-37
2022/10/29 07:45:58;;;;;;;9.95;5.70;;;;;;;23.63;30.63;100845.06;5052578;28;20100;-35
2022/10/29 07:48:23;;;;;;;13.60;4.30;;;;;;;23.80;31.00;100842.19;5051652;28;20535;-37
2022/10/29 07:50:49;;;;;;;6.68;4.25;;;;;;;23.58;31.21;100847.75;5052217;28;20407;-37
2022/10/29 07:53:15;;;;;;;8.90;4.25;;;;;;;23.65;31.51;100837.47;5051912;28;20409;-37
2022/10/29 07:55:40;;;;;;;13.40;4.18;;;;;;;24.25;30.00;100835.25;5051556;28;20029;-37
2022/10/29 07:58:09;;;;;;;9.18;4.05;;;;;;;24.24;29.67;100841.78;5051646;28;20413;-39
2022/10/29 08:00:36;;;;;;;;;;;;;;;24.82;28.58;100847.06;5053031;28;20032;-37
2022/10/29 08:03:02;;;;;;;7.35;3.80;;;;;;;24.89;28.60;100844.88;5051657;28;20161;-37
2022/10/29 08:05:29;;;;;;;9.88;4.63;;;;;;;24.84;28.85;100842.16;5051618;28;20024;-36
2022/10/29 08:07:55;;;;;;;6.40;4.60;;;;;;;24.64;29.05;100802.16;5051265;28;20029;-36
2022/10/29 08:10:22;;;;;;;6.90;4.18;;;;;;;24.88;29.11;100837.00;5051174;28;20426;-38
2022/10/29 08:12:49;;;;;;;9.32;5.78;;;;;;;24.20;30.16;100836.06;5051337;28;20443;-36
2022/10/29 08:15:14;;;;;;;7.50;4.85;;;;;;;23.94;30.29;100827.00;5049645;28;20028;-36
2022/10/29 08:17:40;;;;;;;6.88;4.57;;;;;;;24.14;29.57;100833.59;5050635;28;20021;-36
2022/10/29 08:20:06;;;;;;;7.60;4.10;;;;;;;24.03;30.19;100829.22;5051332;28;20440;-36
2022/10/29 08:22:31;;;;;;;9.65;4.43;;;;;;;24.42;29.31;100831.50;5050973;28;20120;-36
2022/10/29 08:24:56;;;;;;;18.15;9.88;;;;;;;23.96;29.62;100818.59;5050762;28;20025;-36
2022/10/29 08:27:22;;;;;;;16.08;6.97;;;;;;;24.32;30.17;100824.13;5051485;28;20469;-36
2022/10/29 08:29:47;;;;;;;11.88;4.95;;;;;;;24.75;29.96;100820.13;5051138;28;20052;-35
2022/10/29 08:32:13;;;;;;;7.15;4.68;;;;;;;25.19;29.33;100816.00;5051214;28;20456;-35
2022/10/29 08:34:38;;;;;;;7.75;4.28;;;;;;;25.43;28.16;100809.97;5049865;28;20120;-36
2022/10/29 08:37:03;;;;;;;7.93;4.40;;;;;;;25.11;28.57;100822.84;5050765;28;20029;-36
2022/10/29 08:39:29;;;;;;;10.65;4.20;;;;;;;25.20;28.48;100812.19;5051127;28;20020;-37
2022/10/29 08:41:59;;;;;;;8.45;3.80;;;;;;;25.12;28.74;100816.28;5050548;28;20527;-36
2022/10/29 08:44:36;;;;;;;5.82;4.10;;;;;;;24.63;29.12;100805.16;5050897;28;20021;-37
2022/10/29 08:47:14;;;;;;;10.13;4.00;;;;;;;24.43;29.37;100800.47;5050864;28;20028;-37
2022/10/29 08:50:36;;;;;;;9.18;3.90;;;;;;;25.07;28.65;100807.31;5050622;28;20028;-36
2022/10/29 08:53:01;;;;;;;93.55;63.30;;;;;;;25.15;29.81;100804.00;5008142;28;20451;-36
2022/10/29 08:55:35;;;;;;;9.80;5.90;;;;;;;25.26;28.22;100796.69;5042328;28;20036;-36
2022/10/29 08:58:26;;;;;;;7.05;4.35;;;;;;;25.06;28.53;100801.03;5050505;28;20100;-36
2022/10/29 09:00:56;;;;;;;8.18;4.43;;;;;;;25.49;28.28;100801.53;5050970;28;20021;-35
2022/10/29 09:03:24;;;;;;;9.05;3.95;;;;;;;25.60;27.83;100790.59;5050585;28;20504;-35
2022/10/29 09:06:07;;;;;;;9.88;4.10;;;;;;;25.40;27.87;100780.56;5050863;28;20031;-36
2022/10/29 09:09:28;;;;;;;5.43;4.60;;;;;;;24.90;28.57;100783.09;5050631;28;20108;-36
2022/10/29 09:12:06;;;;;;;10.13;5.05;;;;;;;25.17;28.72;100775.44;5030010;28;20044;-35
2022/10/29 09:14:48;;;;;;;9.98;4.63;;;;;;;25.46;28.22;100782.19;5050711;28;20044;-37
2022/10/29 09:17:32;;;;;;;10.57;5.40;;;;;;;25.53;28.36;100769.06;5050073;28;20024;-36
2022/10/29 09:20:22;;;;;;;8.70;4.70;;;;;;;25.55;28.06;100767.72;5049752;28;20043;-36
2022/10/29 09:23:06;;;;;;;10.30;4.75;;;;;;;24.62;28.89;100771.69;5049727;28;20075;-36
2022/10/29 09:25:50;;;;;;;9.10;5.05;;;;;;;25.04;28.56;100764.31;5049577;28;20031;-36
2022/10/29 09:28:46;;;;;;;13.57;4.88;;;;;;;24.55;28.96;100763.78;5050317;28;20036;-36
2022/10/29 09:31:38;;;;;;;9.70;5.28;;;;;;;24.61;29.29;100755.63;5049768;28;20407;-36
2022/10/29 09:34:29;;;;;;;7.38;4.70;;;;;;;24.66;29.06;100761.09;5050019;28;20031;-37
2022/10/29 09:36:55;;;;;;;9.52;5.10;;;;;;;24.76;28.92;100755.63;5049128;28;20552;-36
2022/10/29 09:39:31;;;;;;;9.88;5.32;;;;;;;24.65;29.15;100745.84;5049533;28;20039;-36
2022/10/29 09:41:57;;;;;;;8.10;4.45;;;;;;;25.40;28.08;100748.69;5049504;28;20025;-37
2022/10/29 09:44:39;;;;;;;10.88;5.13;;;;;;;25.18;28.27;100738.09;5050103;28;20020;-36
2022/10/29 09:47:10;;;;;;;8.32;5.05;;;;;;;24.35;29.58;100733.81;5050109;28;20060;-36
2022/10/29 09:49:41;;;;;;;7.38;4.75;;;;;;;24.89;28.75;100729.75;5048619;28;20032;-36
2022/10/29 09:52:20;;;;;;;8.65;4.20;;;;;;;25.65;27.80;100722.44;5049140;28;20506;-37
2022/10/29 09:54:49;;;;;;;11.68;5.18;;;;;;;25.79;27.60;100703.53;5048645;28;20037;-36
2022/10/29 09:57:22;;;;;;;7.43;4.70;;;;;;;25.90;27.77;100719.53;5047257;28;20055;-36
2022/10/29 09:59:53;;;;;;;10.90;4.53;;;;;;;26.03;27.31;100715.41;5050090;28;20104;-37
2022/10/29 10:02:36;;;;;;;8.55;4.47;;;;;;;26.58;26.68;100717.97;5048031;28;20029;-35
2022/10/29 10:05:13;;;;;;;8.45;5.03;;;;;;;26.65;26.21;100709.47;5047641;28;20469;-36
2022/10/29 10:07:40;;;;;;;8.77;4.32;;;;;;;26.02;27.25;100715.69;5045849;28;20497;-36
2022/10/29 10:10:19;;;;;;;6.28;4.30;;;;;;;26.10;26.79;100705.00;5049795;28;20025;-36
2022/10/29 10:12:48;;;;;;;8.00;4.05;;;;;;;26.56;26.33;100702.97;5052103;28;20032;-43
2022/10/29 10:15:16;;;;;;;13.32;4.28;;;;;;;26.48;26.15;100697.06;5053770;28;20025;-41
2022/10/29 10:17:56;;;;;;;7.10;4.20;;;;;;;26.32;26.72;100688.16;5053849;28;20025;-42
2022/10/29 10:20:32;;;;;;;6.20;4.38;;;;;;;26.65;25.78;100682.16;5052409;28;20035;-42
2022/10/29 10:22:58;;;;;;;10.10;4.15;;;;;;;26.40;26.37;100677.75;5050759;28;20172;-42
2022/10/29 10:25:36;;;;;;;7.18;4.15;;;;;;;26.52;26.85;100672.72;5053475;28;20441;-42
2022/10/29 10:28:16;;;;;;;6.85;4.07;;;;;;;26.96;26.31;100668.19;5053407;28;20083;-41
2022/10/29 10:30:42;;;;;;;7.68;3.88;;;;;;;27.08;25.91;100658.47;5053131;28;20029;-42
2022/10/29 10:33:35;;;;;;;9.15;3.78;;;;;;;27.23;25.55;100651.22;5053116;28;20159;-43
2022/10/29 10:36:08;;;;;;;15.55;10.63;;;;;;;27.03;26.60;100650.34;5052733;28;20033;-42
2022/10/29 10:38:43;;;;;;;9.45;6.30;;;;;;;27.13;25.84;100649.44;5053296;28;20505;-44
2022/10/29 10:41:11;;;;;;;9.10;3.85;;;;;;;26.60;25.55;100644.00;5051279;28;20047;-41
2022/10/29 10:43:40;;;;;;;7.68;3.50;;;;;;;27.20;25.20;100633.47;5052940;28;20496;-43
2022/10/29 10:46:18;;;;;;;8.15;4.07;;;;;;;27.42;25.55;100638.41;5052679;28;20461;-43
2022/10/29 10:48:43;;;;;;;9.90;4.30;;;;;;;27.26;25.30;100631.50;5050732;28;20028;-41
2022/10/29 10:51:41;;;;;;;7.75;3.60;;;;;;;27.47;25.47;100618.38;5053135;28;20025;-41
2022/10/29 10:54:27;;;;;;;4.90;3.60;;;;;;;27.81;24.88;100623.59;5044904;28;20043;-43
2022/10/29 10:57:16;;;;;;;7.65;3.50;;;;;;;27.84;24.72;100617.53;5051447;28;20033;-42
2022/10/29 10:59:44;;;;;;;7.55;3.78;;;;;;;28.03;24.32;100609.31;5050857;28;20032;-42
2022/10/29 11:02:18;;;;;;;6.47;3.60;;;;;;;28.16;24.36;100613.22;5053615;28;20024;-42
2022/10/29 11:04:48;;;;;;;9.55;3.60;;;;;;;27.69;24.93;100604.13;5051145;28;20009;-40
2022/10/29 11:07:16;;;;;;;8.15;3.40;;;;;;;28.13;24.91;100596.59;5052523;28;20021;-43
2022/10/29 11:09:47;;;;;;;7.57;3.40;;;;;;;27.99;24.71;100591.09;5053069;28;20021;-41
2022/10/29 11:12:38;;;;;;;10.35;3.53;;;;;;;28.39;24.65;100589.53;5050305;28;20020;-43
2022/10/29 11:15:14;;;;;;;7.82;3.40;;;;;;;28.66;24.17;100591.50;5051843;28;20021;-42
2022/10/29 11:17:46;;;;;;;4.70;3.10;;;;;;;28.85;24.17;100588.66;5051076;28;20031;-42
2022/10/29 11:20:26;;;;;;;10.40;3.35;;;;;;;28.72;24.22;100583.19;5053294;28;20108;-43
2022/10/29 11:23:22;;;;;;;8.02;3.30;;;;;;;28.87;23.43;100582.06;5051099;28;20051;-44
2022/10/29 11:26:01;;;;;;;5.50;3.58;;;;;;;28.97;23.41;100571.69;5051246;28;20040;-45
2022/10/29 11:29:13;;;;;;;7.10;3.30;;;;;;;28.83;23.20;100570.91;5050110;28;20036;-43
2022/10/29 11:31:58;;;;;;;;;;;;;;;29.17;23.37;100565.00;5052931;28;20025;-43
2022/10/29 11:34:39;;;;;;;6.90;3.92;;;;;;;29.02;23.19;100552.41;5052846;28;19981;-42